sensor_id;sensor_type;location;lat;lon;timestamp;temperature;humidity
27795;DHT22;15176;50.844;4.412;2023-04-06T00:01:16;12.10;65.40
27795;DHT22;15176;50.844;4.412;2023-04-06T00:03:42;12.20;66.50
27795;DHT22;15176;50.844;4.412;2023-04-06T00:06:07;11.90;65.40
27795;DHT22;15176;50.844;4.412;2023-04-06T00:08:33;12.00;66.70
27795;DHT22;15176;50.844;4.412;2023-04-06T00:10:59;11.70;65.80
27795;DHT22;15176;50.844;4.412;2023-04-06T00:13:24;11.50;66.60
27795;DHT22;15176;50.844;4.412;2023-04-06T00:15:50;11.50;66.60
27795;DHT22;15176;50.844;4.412;2023-04-06T00:18:16;11.40;67.00
27795;DHT22;15176;50.844;4.412;2023-04-06T00:20:42;11.60;67.70
27795;DHT22;15176;50.844;4.412;2023-04-06T00:23:07;11.50;68.20
27795;DHT22;15176;50.844;4.412;2023-04-06T00:25:33;11.40;67.50
27795;DHT22;15176;50.844;4.412;2023-04-06T00:27:58;11.30;67.30
27795;DHT22;15176;50.844;4.412;2023-04-06T00:30:25;11.50;67.40
27795;DHT22;15176;50.844;4.412;2023-04-06T00:32:51;11.20;68.20
27795;DHT22;15176;50.844;4.412;2023-04-06T00:35:16;11.10;70.90
27795;DHT22;15176;50.844;4.412;2023-04-06T00:37:42;11.00;71.40
27795;DHT22;15176;50.844;4.412;2023-04-06T00:40:08;11.20;74.80
27795;DHT22;15176;50.844;4.412;2023-04-06T00:42:34;11.20;69.30
27795;DHT22;15176;50.844;4.412;2023-04-06T00:45:01;11.20;71.00
27795;DHT22;15176;50.844;4.412;2023-04-06T00:47:27;11.10;69.50
27795;DHT22;15176;50.844;4.412;2023-04-06T00:49:54;11.20;69.40
27795;DHT22;15176;50.844;4.412;2023-04-06T00:52:20;11.50;69.10
27795;DHT22;15176;50.844;4.412;2023-04-06T00:54:48;11.20;68.70
27795;DHT22;15176;50.844;4.412;2023-04-06T00:57:14;11.20;70.20
27795;DHT22;15176;50.844;4.412;2023-04-06T00:59:40;11.10;71.60
27795;DHT22;15176;50.844;4.412;2023-04-06T01:02:07;11.20;70.10
27795;DHT22;15176;50.844;4.412;2023-04-06T01:04:34;11.10;70.90
27795;DHT22;15176;50.844;4.412;2023-04-06T01:06:59;11.30;69.90
27795;DHT22;15176;50.844;4.412;2023-04-06T01:09:27;11.00;71.80
27795;DHT22;15176;50.844;4.412;2023-04-06T01:11:55;11.10;72.30
27795;DHT22;15176;50.844;4.412;2023-04-06T01:14:22;11.20;72.60
27795;DHT22;15176;50.844;4.412;2023-04-06T01:16:47;11.50;71.90
27795;DHT22;15176;50.844;4.412;2023-04-06T01:19:13;11.30;71.50
27795;DHT22;15176;50.844;4.412;2023-04-06T01:21:40;11.30;71.30
27795;DHT22;15176;50.844;4.412;2023-04-06T01:24:07;11.20;70.30
27795;DHT22;15176;50.844;4.412;2023-04-06T01:26:34;11.10;70.80
27795;DHT22;15176;50.844;4.412;2023-04-06T01:29:00;11.40;75.60
27795;DHT22;15176;50.844;4.412;2023-04-06T01:31:26;11.10;70.20
27795;DHT22;15176;50.844;4.412;2023-04-06T01:33:52;11.50;72.70
27795;DHT22;15176;50.844;4.412;2023-04-06T01:36:18;11.60;69.90
27795;DHT22;15176;50.844;4.412;2023-04-06T01:38:44;11.80;69.30
27795;DHT22;15176;50.844;4.412;2023-04-06T01:41:11;11.40;68.70
27795;DHT22;15176;50.844;4.412;2023-04-06T01:43:36;11.40;69.80
27795;DHT22;15176;50.844;4.412;2023-04-06T01:46:02;11.20;71.30
27795;DHT22;15176;50.844;4.412;2023-04-06T01:48:28;11.00;73.50
27795;DHT22;15176;50.844;4.412;2023-04-06T01:50:54;11.10;73.80
27795;DHT22;15176;50.844;4.412;2023-04-06T01:53:20;11.50;72.40
27795;DHT22;15176;50.844;4.412;2023-04-06T01:55:46;11.70;70.40
27795;DHT22;15176;50.844;4.412;2023-04-06T01:58:12;12.00;69.10
27795;DHT22;15176;50.844;4.412;2023-04-06T02:00:39;11.90;69.00
27795;DHT22;15176;50.844;4.412;2023-04-06T02:03:04;11.40;69.00
27795;DHT22;15176;50.844;4.412;2023-04-06T02:05:31;11.30;70.70
27795;DHT22;15176;50.844;4.412;2023-04-06T02:07:58;11.20;71.60
27795;DHT22;15176;50.844;4.412;2023-04-06T02:10:24;11.30;71.80
27795;DHT22;15176;50.844;4.412;2023-04-06T02:12:50;11.70;75.10
27795;DHT22;15176;50.844;4.412;2023-04-06T02:15:15;11.70;70.80
27795;DHT22;15176;50.844;4.412;2023-04-06T02:17:41;11.70;71.00
27795;DHT22;15176;50.844;4.412;2023-04-06T02:20:07;11.80;72.00
27795;DHT22;15176;50.844;4.412;2023-04-06T02:22:36;11.50;70.50
27795;DHT22;15176;50.844;4.412;2023-04-06T02:25:02;11.20;71.20
27795;DHT22;15176;50.844;4.412;2023-04-06T02:27:28;11.40;72.90
27795;DHT22;15176;50.844;4.412;2023-04-06T02:29:53;11.50;78.20
27795;DHT22;15176;50.844;4.412;2023-04-06T02:32:19;11.60;73.60
27795;DHT22;15176;50.844;4.412;2023-04-06T02:34:45;12.10;78.70
27795;DHT22;15176;50.844;4.412;2023-04-06T02:37:10;12.20;72.60
27795;DHT22;15176;50.844;4.412;2023-04-06T02:39:36;12.10;71.30
27795;DHT22;15176;50.844;4.412;2023-04-06T02:42:02;11.90;70.70
27795;DHT22;15176;50.844;4.412;2023-04-06T02:44:28;12.20;72.80
27795;DHT22;15176;50.844;4.412;2023-04-06T02:46:54;11.90;69.30
27795;DHT22;15176;50.844;4.412;2023-04-06T02:49:19;12.00;70.70
27795;DHT22;15176;50.844;4.412;2023-04-06T02:51:45;12.20;72.30
27795;DHT22;15176;50.844;4.412;2023-04-06T02:54:11;12.00;69.30
27795;DHT22;15176;50.844;4.412;2023-04-06T02:56:36;11.60;71.70
27795;DHT22;15176;50.844;4.412;2023-04-06T02:59:02;11.30;72.30
27795;DHT22;15176;50.844;4.412;2023-04-06T03:01:28;11.50;73.00
27795;DHT22;15176;50.844;4.412;2023-04-06T03:03:53;11.30;73.60
27795;DHT22;15176;50.844;4.412;2023-04-06T03:06:19;11.50;76.80
27795;DHT22;15176;50.844;4.412;2023-04-06T03:08:45;11.40;74.00
27795;DHT22;15176;50.844;4.412;2023-04-06T03:11:12;11.50;73.80
27795;DHT22;15176;50.844;4.412;2023-04-06T03:13:38;11.30;74.30
27795;DHT22;15176;50.844;4.412;2023-04-06T03:16:05;11.50;74.40
27795;DHT22;15176;50.844;4.412;2023-04-06T03:18:31;11.50;73.80
27795;DHT22;15176;50.844;4.412;2023-04-06T03:20:57;11.60;73.70
27795;DHT22;15176;50.844;4.412;2023-04-06T03:23:23;11.50;76.10
27795;DHT22;15176;50.844;4.412;2023-04-06T03:25:48;11.80;76.70
27795;DHT22;15176;50.844;4.412;2023-04-06T03:28:15;11.80;73.20
27795;DHT22;15176;50.844;4.412;2023-04-06T03:30:41;12.10;73.30
27795;DHT22;15176;50.844;4.412;2023-04-06T03:33:07;11.80;72.10
27795;DHT22;15176;50.844;4.412;2023-04-06T03:35:33;11.50;73.20
27795;DHT22;15176;50.844;4.412;2023-04-06T03:37:58;11.50;73.80
27795;DHT22;15176;50.844;4.412;2023-04-06T03:40:24;11.40;73.40
27795;DHT22;15176;50.844;4.412;2023-04-06T03:42:50;11.80;75.30
27795;DHT22;15176;50.844;4.412;2023-04-06T03:45:16;12.00;76.10
27795;DHT22;15176;50.844;4.412;2023-04-06T03:47:43;12.20;75.00
27795;DHT22;15176;50.844;4.412;2023-04-06T03:50:09;12.40;73.40
27795;DHT22;15176;50.844;4.412;2023-04-06T03:52:35;12.60;71.60
27795;DHT22;15176;50.844;4.412;2023-04-06T03:55:01;12.60;74.80
27795;DHT22;15176;50.844;4.412;2023-04-06T03:57:27;12.50;70.60
27795;DHT22;15176;50.844;4.412;2023-04-06T03:59:53;12.30;73.80
27795;DHT22;15176;50.844;4.412;2023-04-06T04:02:19;12.40;73.20
27795;DHT22;15176;50.844;4.412;2023-04-06T04:04:45;12.10;72.00
27795;DHT22;15176;50.844;4.412;2023-04-06T04:07:12;12.20;74.50
27795;DHT22;15176;50.844;4.412;2023-04-06T04:09:37;12.20;73.00
27795;DHT22;15176;50.844;4.412;2023-04-06T04:12:03;11.60;74.60
27795;DHT22;15176;50.844;4.412;2023-04-06T04:14:29;11.50;75.40
27795;DHT22;15176;50.844;4.412;2023-04-06T04:16:58;11.70;75.70
27795;DHT22;15176;50.844;4.412;2023-04-06T04:19:23;11.90;76.50
27795;DHT22;15176;50.844;4.412;2023-04-06T04:21:49;12.00;73.70
27795;DHT22;15176;50.844;4.412;2023-04-06T04:24:15;11.90;73.00
27795;DHT22;15176;50.844;4.412;2023-04-06T04:26:41;12.00;74.30
27795;DHT22;15176;50.844;4.412;2023-04-06T04:29:06;11.90;74.00
27795;DHT22;15176;50.844;4.412;2023-04-06T04:31:32;12.20;72.70
27795;DHT22;15176;50.844;4.412;2023-04-06T04:34:00;11.50;74.50
27795;DHT22;15176;50.844;4.412;2023-04-06T04:36:27;11.10;76.30
27795;DHT22;15176;50.844;4.412;2023-04-06T04:38:52;11.30;78.50
27795;DHT22;15176;50.844;4.412;2023-04-06T04:41:18;11.30;76.90
27795;DHT22;15176;50.844;4.412;2023-04-06T04:43:44;11.60;75.80
27795;DHT22;15176;50.844;4.412;2023-04-06T04:46:10;11.70;76.20
27795;DHT22;15176;50.844;4.412;2023-04-06T04:48:35;11.80;75.10
27795;DHT22;15176;50.844;4.412;2023-04-06T04:51:01;11.60;76.60
27795;DHT22;15176;50.844;4.412;2023-04-06T04:53:27;11.70;76.50
27795;DHT22;15176;50.844;4.412;2023-04-06T04:55:53;11.80;75.90
27795;DHT22;15176;50.844;4.412;2023-04-06T04:58:18;11.40;78.30
27795;DHT22;15176;50.844;4.412;2023-04-06T05:00:46;11.50;77.80
27795;DHT22;15176;50.844;4.412;2023-04-06T05:03:21;11.50;77.90
27795;DHT22;15176;50.844;4.412;2023-04-06T05:05:47;11.10;80.00
27795;DHT22;15176;50.844;4.412;2023-04-06T05:08:13;10.90;83.00
27795;DHT22;15176;50.844;4.412;2023-04-06T05:10:39;10.90;83.90
27795;DHT22;15176;50.844;4.412;2023-04-06T05:13:05;11.00;83.60
27795;DHT22;15176;50.844;4.412;2023-04-06T05:15:31;11.00;83.10
27795;DHT22;15176;50.844;4.412;2023-04-06T05:18:00;11.20;82.70
27795;DHT22;15176;50.844;4.412;2023-04-06T05:20:26;11.10;84.80
27795;DHT22;15176;50.844;4.412;2023-04-06T05:22:52;11.10;84.30
27795;DHT22;15176;50.844;4.412;2023-04-06T05:25:18;11.00;85.70
27795;DHT22;15176;50.844;4.412;2023-04-06T05:27:43;11.20;85.10
27795;DHT22;15176;50.844;4.412;2023-04-06T05:30:09;10.70;87.40
27795;DHT22;15176;50.844;4.412;2023-04-06T05:32:35;10.80;88.00
27795;DHT22;15176;50.844;4.412;2023-04-06T05:35:01;10.80;89.20
27795;DHT22;15176;50.844;4.412;2023-04-06T05:37:27;10.60;90.70
27795;DHT22;15176;50.844;4.412;2023-04-06T05:39:52;10.40;91.80
27795;DHT22;15176;50.844;4.412;2023-04-06T05:42:18;10.60;91.80
27795;DHT22;15176;50.844;4.412;2023-04-06T05:44:44;10.70;91.70
27795;DHT22;15176;50.844;4.412;2023-04-06T05:47:09;10.90;91.60
27795;DHT22;15176;50.844;4.412;2023-04-06T05:49:35;10.80;91.50
27795;DHT22;15176;50.844;4.412;2023-04-06T05:52:01;10.90;91.70
27795;DHT22;15176;50.844;4.412;2023-04-06T05:54:27;10.80;92.20
27795;DHT22;15176;50.844;4.412;2023-04-06T05:56:53;10.70;92.70
27795;DHT22;15176;50.844;4.412;2023-04-06T05:59:18;10.70;93.20
27795;DHT22;15176;50.844;4.412;2023-04-06T06:01:44;10.50;94.50
27795;DHT22;15176;50.844;4.412;2023-04-06T06:04:10;10.60;94.90
27795;DHT22;15176;50.844;4.412;2023-04-06T06:06:35;10.70;94.90
27795;DHT22;15176;50.844;4.412;2023-04-06T06:09:02;10.70;95.30
27795;DHT22;15176;50.844;4.412;2023-04-06T06:11:29;10.70;95.60
27795;DHT22;15176;50.844;4.412;2023-04-06T06:13:55;10.80;95.50
27795;DHT22;15176;50.844;4.412;2023-04-06T06:16:21;10.70;95.40
27795;DHT22;15176;50.844;4.412;2023-04-06T06:18:47;10.60;96.10
27795;DHT22;15176;50.844;4.412;2023-04-06T06:21:13;10.60;96.90
27795;DHT22;15176;50.844;4.412;2023-04-06T06:23:39;10.90;96.20
27795;DHT22;15176;50.844;4.412;2023-04-06T06:26:05;11.00;95.50
27795;DHT22;15176;50.844;4.412;2023-04-06T06:28:31;11.10;95.60
27795;DHT22;15176;50.844;4.412;2023-04-06T06:30:58;11.20;95.80
27795;DHT22;15176;50.844;4.412;2023-04-06T06:33:24;11.10;98.00
27795;DHT22;15176;50.844;4.412;2023-04-06T06:35:51;11.00;99.90
27795;DHT22;15176;50.844;4.412;2023-04-06T06:38:17;10.80;99.90
27795;DHT22;15176;50.844;4.412;2023-04-06T06:40:45;10.90;99.90
27795;DHT22;15176;50.844;4.412;2023-04-06T06:43:11;11.00;99.90
27795;DHT22;15176;50.844;4.412;2023-04-06T06:45:37;10.80;99.90
27795;DHT22;15176;50.844;4.412;2023-04-06T06:48:03;10.90;99.90
27795;DHT22;15176;50.844;4.412;2023-04-06T06:50:28;11.10;99.90
27795;DHT22;15176;50.844;4.412;2023-04-06T06:52:54;11.20;99.90
27795;DHT22;15176;50.844;4.412;2023-04-06T06:55:20;11.20;99.90
27795;DHT22;15176;50.844;4.412;2023-04-06T06:57:46;11.20;99.90
27795;DHT22;15176;50.844;4.412;2023-04-06T07:00:14;11.10;99.90
27795;DHT22;15176;50.844;4.412;2023-04-06T07:02:40;11.10;99.90
27795;DHT22;15176;50.844;4.412;2023-04-06T07:05:06;11.00;99.90
27795;DHT22;15176;50.844;4.412;2023-04-06T07:07:32;10.80;99.90
27795;DHT22;15176;50.844;4.412;2023-04-06T07:10:01;10.80;99.90
27795;DHT22;15176;50.844;4.412;2023-04-06T07:12:27;10.60;99.90
27795;DHT22;15176;50.844;4.412;2023-04-06T07:14:53;10.80;99.90
27795;DHT22;15176;50.844;4.412;2023-04-06T07:17:20;11.00;99.90
27795;DHT22;15176;50.844;4.412;2023-04-06T07:19:46;10.60;99.90
27795;DHT22;15176;50.844;4.412;2023-04-06T07:22:12;11.20;99.90
27795;DHT22;15176;50.844;4.412;2023-04-06T07:24:37;10.70;99.90
27795;DHT22;15176;50.844;4.412;2023-04-06T07:27:03;10.60;99.90
27795;DHT22;15176;50.844;4.412;2023-04-06T07:29:29;10.50;99.90
27795;DHT22;15176;50.844;4.412;2023-04-06T07:31:55;10.40;99.90
27795;DHT22;15176;50.844;4.412;2023-04-06T07:34:21;10.20;99.90
27795;DHT22;15176;50.844;4.412;2023-04-06T07:36:48;10.30;99.90
27795;DHT22;15176;50.844;4.412;2023-04-06T07:39:14;10.20;99.90
27795;DHT22;15176;50.844;4.412;2023-04-06T07:41:40;10.20;99.90
27795;DHT22;15176;50.844;4.412;2023-04-06T07:44:06;10.40;99.90
27795;DHT22;15176;50.844;4.412;2023-04-06T07:46:32;10.30;99.90
27795;DHT22;15176;50.844;4.412;2023-04-06T07:48:59;10.30;99.90
27795;DHT22;15176;50.844;4.412;2023-04-06T07:51:26;10.20;99.90
27795;DHT22;15176;50.844;4.412;2023-04-06T07:53:52;10.30;99.90
27795;DHT22;15176;50.844;4.412;2023-04-06T07:56:18;10.10;99.90
27795;DHT22;15176;50.844;4.412;2023-04-06T07:58:44;10.00;99.90
27795;DHT22;15176;50.844;4.412;2023-04-06T08:01:10;10.10;99.90
27795;DHT22;15176;50.844;4.412;2023-04-06T08:03:36;10.40;99.90
27795;DHT22;15176;50.844;4.412;2023-04-06T08:06:02;10.30;99.90
27795;DHT22;15176;50.844;4.412;2023-04-06T08:08:28;10.50;99.90
27795;DHT22;15176;50.844;4.412;2023-04-06T08:10:54;10.70;99.90
27795;DHT22;15176;50.844;4.412;2023-04-06T08:13:20;10.40;99.90
27795;DHT22;15176;50.844;4.412;2023-04-06T08:15:46;10.70;99.90
27795;DHT22;15176;50.844;4.412;2023-04-06T08:18:12;10.90;99.90
27795;DHT22;15176;50.844;4.412;2023-04-06T08:20:39;10.50;99.90
27795;DHT22;15176;50.844;4.412;2023-04-06T08:23:05;10.30;99.90
27795;DHT22;15176;50.844;4.412;2023-04-06T08:25:33;9.90;99.90
27795;DHT22;15176;50.844;4.412;2023-04-06T08:27:59;9.90;99.90
27795;DHT22;15176;50.844;4.412;2023-04-06T08:30:25;10.00;99.90
27795;DHT22;15176;50.844;4.412;2023-04-06T08:32:54;10.10;99.90
27795;DHT22;15176;50.844;4.412;2023-04-06T08:35:20;9.80;99.90
27795;DHT22;15176;50.844;4.412;2023-04-06T08:37:45;9.90;99.90
27795;DHT22;15176;50.844;4.412;2023-04-06T08:40:12;9.80;99.90
27795;DHT22;15176;50.844;4.412;2023-04-06T08:42:40;10.20;99.90
27795;DHT22;15176;50.844;4.412;2023-04-06T08:45:09;10.10;99.90
27795;DHT22;15176;50.844;4.412;2023-04-06T08:47:36;10.10;99.90
27795;DHT22;15176;50.844;4.412;2023-04-06T08:50:06;10.20;99.90
27795;DHT22;15176;50.844;4.412;2023-04-06T08:52:33;10.20;99.90
27795;DHT22;15176;50.844;4.412;2023-04-06T08:55:00;10.10;99.90
27795;DHT22;15176;50.844;4.412;2023-04-06T08:57:28;10.50;99.90
27795;DHT22;15176;50.844;4.412;2023-04-06T08:59:55;10.20;99.90
27795;DHT22;15176;50.844;4.412;2023-04-06T09:02:21;9.80;99.90
27795;DHT22;15176;50.844;4.412;2023-04-06T09:04:53;10.10;99.90
27795;DHT22;15176;50.844;4.412;2023-04-06T09:07:19;10.10;99.90
27795;DHT22;15176;50.844;4.412;2023-04-06T09:09:46;10.40;99.90
27795;DHT22;15176;50.844;4.412;2023-04-06T09:12:24;10.30;99.90
27795;DHT22;15176;50.844;4.412;2023-04-06T09:14:50;10.10;99.90
27795;DHT22;15176;50.844;4.412;2023-04-06T09:17:23;10.10;99.90
27795;DHT22;15176;50.844;4.412;2023-04-06T09:19:49;10.10;99.90
27795;DHT22;15176;50.844;4.412;2023-04-06T09:22:15;10.00;99.90
27795;DHT22;15176;50.844;4.412;2023-04-06T09:24:45;10.10;99.90
27795;DHT22;15176;50.844;4.412;2023-04-06T09:27:12;10.40;99.90
27795;DHT22;15176;50.844;4.412;2023-04-06T09:29:38;10.00;99.90
27795;DHT22;15176;50.844;4.412;2023-04-06T09:32:05;10.00;99.90
27795;DHT22;15176;50.844;4.412;2023-04-06T09:34:32;10.10;99.90
27795;DHT22;15176;50.844;4.412;2023-04-06T09:36:58;10.00;99.90
27795;DHT22;15176;50.844;4.412;2023-04-06T09:39:24;10.00;99.90
27795;DHT22;15176;50.844;4.412;2023-04-06T09:41:52;10.10;99.90
27795;DHT22;15176;50.844;4.412;2023-04-06T09:44:18;10.00;99.90
27795;DHT22;15176;50.844;4.412;2023-04-06T09:46:45;10.00;99.90
27795;DHT22;15176;50.844;4.412;2023-04-06T09:49:12;9.70;99.90
27795;DHT22;15176;50.844;4.412;2023-04-06T09:51:49;9.70;99.90
27795;DHT22;15176;50.844;4.412;2023-04-06T09:54:20;9.70;99.90
27795;DHT22;15176;50.844;4.412;2023-04-06T09:59:30;9.70;99.90
27795;DHT22;15176;50.844;4.412;2023-04-06T10:01:58;9.80;99.90
27795;DHT22;15176;50.844;4.412;2023-04-06T10:04:39;9.70;99.90
27795;DHT22;15176;50.844;4.412;2023-04-06T10:07:08;9.70;99.90
27795;DHT22;15176;50.844;4.412;2023-04-06T10:09:37;9.70;99.90
27795;DHT22;15176;50.844;4.412;2023-04-06T10:12:06;9.70;99.90
27795;DHT22;15176;50.844;4.412;2023-04-06T10:14:35;9.70;99.90
27795;DHT22;15176;50.844;4.412;2023-04-06T10:17:03;10.20;99.90
27795;DHT22;15176;50.844;4.412;2023-04-06T10:19:39;10.20;99.90
27795;DHT22;15176;50.844;4.412;2023-04-06T10:22:08;10.00;99.90
27795;DHT22;15176;50.844;4.412;2023-04-06T10:24:36;9.80;99.90
27795;DHT22;15176;50.844;4.412;2023-04-06T10:27:02;9.90;99.90
27795;DHT22;15176;50.844;4.412;2023-04-06T10:29:28;10.00;99.90
27795;DHT22;15176;50.844;4.412;2023-04-06T10:32:05;10.40;99.90
27795;DHT22;15176;50.844;4.412;2023-04-06T10:34:35;10.20;99.90
27795;DHT22;15176;50.844;4.412;2023-04-06T10:37:12;10.10;99.90
27795;DHT22;15176;50.844;4.412;2023-04-06T10:39:46;9.90;99.90
27795;DHT22;15176;50.844;4.412;2023-04-06T10:42:12;10.00;99.90
27795;DHT22;15176;50.844;4.412;2023-04-06T10:44:43;9.90;99.90
27795;DHT22;15176;50.844;4.412;2023-04-06T10:47:16;10.30;99.90
27795;DHT22;15176;50.844;4.412;2023-04-06T10:49:43;10.30;99.90
27795;DHT22;15176;50.844;4.412;2023-04-06T10:52:09;10.40;99.90
27795;DHT22;15176;50.844;4.412;2023-04-06T10:54:42;10.40;99.90
27795;DHT22;15176;50.844;4.412;2023-04-06T10:57:09;10.50;99.90
27795;DHT22;15176;50.844;4.412;2023-04-06T10:59:35;10.40;99.90
27795;DHT22;15176;50.844;4.412;2023-04-06T11:02:01;10.30;99.90
27795;DHT22;15176;50.844;4.412;2023-04-06T11:04:26;10.60;99.90
27795;DHT22;15176;50.844;4.412;2023-04-06T11:06:52;10.30;99.90
27795;DHT22;15176;50.844;4.412;2023-04-06T11:09:26;10.20;99.90
27795;DHT22;15176;50.844;4.412;2023-04-06T11:11:52;10.20;99.90
27795;DHT22;15176;50.844;4.412;2023-04-06T11:14:18;10.20;99.90
27795;DHT22;15176;50.844;4.412;2023-04-06T11:16:46;10.00;99.90
27795;DHT22;15176;50.844;4.412;2023-04-06T11:19:15;10.10;99.90
27795;DHT22;15176;50.844;4.412;2023-04-06T11:21:46;10.70;99.90
27795;DHT22;15176;50.844;4.412;2023-04-06T11:24:22;10.50;99.90
27795;DHT22;15176;50.844;4.412;2023-04-06T11:26:56;10.30;99.90
27795;DHT22;15176;50.844;4.412;2023-04-06T11:29:27;10.30;99.90
27795;DHT22;15176;50.844;4.412;2023-04-06T11:31:58;10.30;99.90
27795;DHT22;15176;50.844;4.412;2023-04-06T11:34:25;10.40;99.90
27795;DHT22;15176;50.844;4.412;2023-04-06T11:37:01;10.10;99.90
27795;DHT22;15176;50.844;4.412;2023-04-06T11:39:31;10.00;99.90
27795;DHT22;15176;50.844;4.412;2023-04-06T11:42:01;9.90;99.90
27795;DHT22;15176;50.844;4.412;2023-04-06T11:44:43;9.90;99.90
27795;DHT22;15176;50.844;4.412;2023-04-06T11:47:14;10.00;99.90
27795;DHT22;15176;50.844;4.412;2023-04-06T11:49:41;10.40;99.90
27795;DHT22;15176;50.844;4.412;2023-04-06T11:54:46;10.40;99.90
27795;DHT22;15176;50.844;4.412;2023-04-06T11:57:12;10.40;99.90
27795;DHT22;15176;50.844;4.412;2023-04-06T11:59:38;10.20;99.90
27795;DHT22;15176;50.844;4.412;2023-04-06T12:02:05;10.40;99.90
27795;DHT22;15176;50.844;4.412;2023-04-06T12:04:31;10.80;99.90
27795;DHT22;15176;50.844;4.412;2023-04-06T12:06:57;10.70;99.90
27795;DHT22;15176;50.844;4.412;2023-04-06T12:09:23;11.00;99.90
27795;DHT22;15176;50.844;4.412;2023-04-06T12:11:49;11.00;99.90
27795;DHT22;15176;50.844;4.412;2023-04-06T12:14:14;11.20;99.90
27795;DHT22;15176;50.844;4.412;2023-04-06T12:16:40;10.90;99.90
27795;DHT22;15176;50.844;4.412;2023-04-06T12:19:06;11.00;99.90
27795;DHT22;15176;50.844;4.412;2023-04-06T12:21:34;11.00;99.90
27795;DHT22;15176;50.844;4.412;2023-04-06T12:24:00;11.20;99.90
27795;DHT22;15176;50.844;4.412;2023-04-06T12:26:27;11.00;99.90
27795;DHT22;15176;50.844;4.412;2023-04-06T12:28:53;11.10;99.90
27795;DHT22;15176;50.844;4.412;2023-04-06T12:31:20;11.10;99.90
27795;DHT22;15176;50.844;4.412;2023-04-06T12:33:47;10.80;99.90
27795;DHT22;15176;50.844;4.412;2023-04-06T12:36:18;10.80;99.90
27795;DHT22;15176;50.844;4.412;2023-04-06T12:38:48;11.00;99.90
27795;DHT22;15176;50.844;4.412;2023-04-06T12:41:14;11.00;99.90
27795;DHT22;15176;50.844;4.412;2023-04-06T12:43:41;11.00;99.90
27795;DHT22;15176;50.844;4.412;2023-04-06T12:46:07;10.90;99.90
27795;DHT22;15176;50.844;4.412;2023-04-06T12:48:33;10.80;99.90
27795;DHT22;15176;50.844;4.412;2023-04-06T12:51:00;10.80;99.90
27795;DHT22;15176;50.844;4.412;2023-04-06T12:53:27;10.80;99.90
27795;DHT22;15176;50.844;4.412;2023-04-06T12:55:55;11.00;99.90
27795;DHT22;15176;50.844;4.412;2023-04-06T12:58:22;11.20;99.90
27795;DHT22;15176;50.844;4.412;2023-04-06T13:00:49;11.30;99.90
27795;DHT22;15176;50.844;4.412;2023-04-06T13:03:15;11.10;99.90
27795;DHT22;15176;50.844;4.412;2023-04-06T13:05:49;11.20;99.90
27795;DHT22;15176;50.844;4.412;2023-04-06T13:08:15;11.30;99.90
27795;DHT22;15176;50.844;4.412;2023-04-06T13:10:48;11.00;99.90
27795;DHT22;15176;50.844;4.412;2023-04-06T13:13:20;10.70;99.90
27795;DHT22;15176;50.844;4.412;2023-04-06T13:15:46;10.80;99.90
27795;DHT22;15176;50.844;4.412;2023-04-06T13:18:12;10.50;99.90
27795;DHT22;15176;50.844;4.412;2023-04-06T13:20:37;10.80;99.90
27795;DHT22;15176;50.844;4.412;2023-04-06T13:23:03;11.10;99.90
27795;DHT22;15176;50.844;4.412;2023-04-06T13:25:29;11.30;99.90
27795;DHT22;15176;50.844;4.412;2023-04-06T13:27:55;10.80;99.90
27795;DHT22;15176;50.844;4.412;2023-04-06T13:30:21;10.90;99.90
27795;DHT22;15176;50.844;4.412;2023-04-06T13:32:47;11.20;99.90
27795;DHT22;15176;50.844;4.412;2023-04-06T13:35:14;11.20;99.90
27795;DHT22;15176;50.844;4.412;2023-04-06T13:37:40;11.50;99.90
27795;DHT22;15176;50.844;4.412;2023-04-06T13:40:06;11.40;99.90
27795;DHT22;15176;50.844;4.412;2023-04-06T13:42:32;11.30;99.90
27795;DHT22;15176;50.844;4.412;2023-04-06T13:45:00;11.30;99.90
27795;DHT22;15176;50.844;4.412;2023-04-06T13:47:26;11.20;99.90
27795;DHT22;15176;50.844;4.412;2023-04-06T13:49:53;11.00;99.90
27795;DHT22;15176;50.844;4.412;2023-04-06T13:52:19;10.80;99.90
27795;DHT22;15176;50.844;4.412;2023-04-06T13:54:46;10.50;99.90
27795;DHT22;15176;50.844;4.412;2023-04-06T13:57:12;10.70;99.90
27795;DHT22;15176;50.844;4.412;2023-04-06T13:59:38;10.70;99.90
27795;DHT22;15176;50.844;4.412;2023-04-06T14:02:06;10.60;99.90
27795;DHT22;15176;50.844;4.412;2023-04-06T14:04:32;11.00;99.90
27795;DHT22;15176;50.844;4.412;2023-04-06T14:06:59;11.00;99.90
27795;DHT22;15176;50.844;4.412;2023-04-06T14:09:25;11.30;99.90
27795;DHT22;15176;50.844;4.412;2023-04-06T14:11:52;11.30;99.90
27795;DHT22;15176;50.844;4.412;2023-04-06T14:14:18;11.00;99.90
27795;DHT22;15176;50.844;4.412;2023-04-06T14:16:44;10.90;99.90
27795;DHT22;15176;50.844;4.412;2023-04-06T14:19:11;10.80;99.90
27795;DHT22;15176;50.844;4.412;2023-04-06T14:21:39;10.50;99.90
27795;DHT22;15176;50.844;4.412;2023-04-06T14:24:06;10.60;99.90
27795;DHT22;15176;50.844;4.412;2023-04-06T14:26:33;10.80;99.90
27795;DHT22;15176;50.844;4.412;2023-04-06T14:29:02;11.00;99.90
27795;DHT22;15176;50.844;4.412;2023-04-06T14:31:28;11.20;99.90
27795;DHT22;15176;50.844;4.412;2023-04-06T14:33:54;11.50;99.90
27795;DHT22;15176;50.844;4.412;2023-04-06T14:36:20;11.30;99.90
27795;DHT22;15176;50.844;4.412;2023-04-06T14:38:45;11.00;99.90
27795;DHT22;15176;50.844;4.412;2023-04-06T14:41:18;10.80;99.90
27795;DHT22;15176;50.844;4.412;2023-04-06T14:43:45;10.70;99.90
27795;DHT22;15176;50.844;4.412;2023-04-06T14:46:10;10.60;99.90
27795;DHT22;15176;50.844;4.412;2023-04-06T14:48:36;10.60;99.90
27795;DHT22;15176;50.844;4.412;2023-04-06T14:51:02;10.70;99.90
27795;DHT22;15176;50.844;4.412;2023-04-06T14:53:28;10.90;99.90
27795;DHT22;15176;50.844;4.412;2023-04-06T14:55:55;10.80;99.90
27795;DHT22;15176;50.844;4.412;2023-04-06T14:58:21;10.90;99.90
27795;DHT22;15176;50.844;4.412;2023-04-06T15:00:48;11.00;99.90
27795;DHT22;15176;50.844;4.412;2023-04-06T15:03:14;11.20;99.90
27795;DHT22;15176;50.844;4.412;2023-04-06T15:05:40;11.00;99.90
27795;DHT22;15176;50.844;4.412;2023-04-06T15:08:05;11.00;99.90
27795;DHT22;15176;50.844;4.412;2023-04-06T15:10:32;11.00;99.90
27795;DHT22;15176;50.844;4.412;2023-04-06T15:12:58;11.50;99.90
27795;DHT22;15176;50.844;4.412;2023-04-06T15:15:26;11.30;99.90
27795;DHT22;15176;50.844;4.412;2023-04-06T15:17:51;11.20;99.90
27795;DHT22;15176;50.844;4.412;2023-04-06T15:20:17;11.50;99.90
27795;DHT22;15176;50.844;4.412;2023-04-06T15:22:44;11.40;99.90
27795;DHT22;15176;50.844;4.412;2023-04-06T15:25:10;11.70;99.90
27795;DHT22;15176;50.844;4.412;2023-04-06T15:27:35;11.60;99.90
27795;DHT22;15176;50.844;4.412;2023-04-06T15:30:01;11.50;99.90
27795;DHT22;15176;50.844;4.412;2023-04-06T15:32:27;11.60;99.90
27795;DHT22;15176;50.844;4.412;2023-04-06T15:34:59;12.00;99.90